sensor_id;sensor_type;location;lat;lon;timestamp;temperature;humidity
27200;DHT22;14714;48.106;11.546;2022-07-29T00:02:24;19.60;99.30
27200;DHT22;14714;48.106;11.546;2022-07-29T00:04:51;19.60;99.70
27200;DHT22;14714;48.106;11.546;2022-07-29T00:07:18;19.50;99.80
27200;DHT22;14714;48.106;11.546;2022-07-29T00:09:45;19.60;99.90
27200;DHT22;14714;48.106;11.546;2022-07-29T00:12:19;19.50;99.90
27200;DHT22;14714;48.106;11.546;2022-07-29T00:14:53;19.50;99.90
27200;DHT22;14714;48.106;11.546;2022-07-29T00:17:21;19.50;99.90
27200;DHT22;14714;48.106;11.546;2022-07-29T00:19:48;19.50;99.90
27200;DHT22;14714;48.106;11.546;2022-07-29T00:22:15;19.50;99.90
27200;DHT22;14714;48.106;11.546;2022-07-29T00:24:42;19.40;99.90
27200;DHT22;14714;48.106;11.546;2022-07-29T00:27:09;19.40;99.90
27200;DHT22;14714;48.106;11.546;2022-07-29T00:29:35;19.40;99.90
27200;DHT22;14714;48.106;11.546;2022-07-29T00:32:02;19.40;99.90
27200;DHT22;14714;48.106;11.546;2022-07-29T00:34:30;19.40;99.90
27200;DHT22;14714;48.106;11.546;2022-07-29T00:37:15;19.40;99.90
27200;DHT22;14714;48.106;11.546;2022-07-29T00:39:42;19.40;99.90
27200;DHT22;14714;48.106;11.546;2022-07-29T00:42:09;19.40;99.90
27200;DHT22;14714;48.106;11.546;2022-07-29T00:44:41;19.40;99.90
27200;DHT22;14714;48.106;11.546;2022-07-29T00:47:09;19.40;99.90
27200;DHT22;14714;48.106;11.546;2022-07-29T00:49:36;19.50;99.90
27200;DHT22;14714;48.106;11.546;2022-07-29T00:52:06;19.50;99.90
27200;DHT22;14714;48.106;11.546;2022-07-29T00:54:34;19.50;99.90
27200;DHT22;14714;48.106;11.546;2022-07-29T00:57:06;19.50;99.90
27200;DHT22;14714;48.106;11.546;2022-07-29T00:59:34;19.50;99.90
27200;DHT22;14714;48.106;11.546;2022-07-29T01:02:04;19.50;99.90
27200;DHT22;14714;48.106;11.546;2022-07-29T01:04:32;19.50;99.90
27200;DHT22;14714;48.106;11.546;2022-07-29T01:07:00;19.50;99.90
27200;DHT22;14714;48.106;11.546;2022-07-29T01:09:29;19.60;99.90
27200;DHT22;14714;48.106;11.546;2022-07-29T01:12:17;19.60;99.90
27200;DHT22;14714;48.106;11.546;2022-07-29T01:14:46;19.60;99.90
27200;DHT22;14714;48.106;11.546;2022-07-29T01:17:21;19.60;99.90
27200;DHT22;14714;48.106;11.546;2022-07-29T01:29:05;19.60;99.90
27200;DHT22;14714;48.106;11.546;2022-07-29T01:37:10;19.60;99.60
27200;DHT22;14714;48.106;11.546;2022-07-29T01:39:41;19.60;99.70
27200;DHT22;14714;48.106;11.546;2022-07-29T01:47:25;19.60;99.20
27200;DHT22;14714;48.106;11.546;2022-07-29T01:49:54;19.70;98.80
27200;DHT22;14714;48.106;11.546;2022-07-29T01:52:33;19.70;98.90
27200;DHT22;14714;48.106;11.546;2022-07-29T01:55:13;19.70;99.10
27200;DHT22;14714;48.106;11.546;2022-07-29T01:57:43;19.70;99.20
27200;DHT22;14714;48.106;11.546;2022-07-29T02:00:10;19.70;98.90
27200;DHT22;14714;48.106;11.546;2022-07-29T02:02:40;19.70;99.40
27200;DHT22;14714;48.106;11.546;2022-07-29T02:05:10;19.70;98.80
27200;DHT22;14714;48.106;11.546;2022-07-29T02:07:37;19.70;99.10
27200;DHT22;14714;48.106;11.546;2022-07-29T02:10:07;19.70;99.80
27200;DHT22;14714;48.106;11.546;2022-07-29T02:12:36;19.70;99.60
27200;DHT22;14714;48.106;11.546;2022-07-29T02:15:04;19.70;99.30
27200;DHT22;14714;48.106;11.546;2022-07-29T02:17:40;19.60;99.90
27200;DHT22;14714;48.106;11.546;2022-07-29T02:20:09;19.60;99.90
27200;DHT22;14714;48.106;11.546;2022-07-29T02:22:38;19.60;99.90
27200;DHT22;14714;48.106;11.546;2022-07-29T02:25:07;19.60;99.90
27200;DHT22;14714;48.106;11.546;2022-07-29T02:27:40;19.60;99.90
27200;DHT22;14714;48.106;11.546;2022-07-29T02:30:09;19.50;99.90
27200;DHT22;14714;48.106;11.546;2022-07-29T02:32:39;19.50;99.90
27200;DHT22;14714;48.106;11.546;2022-07-29T02:35:08;19.50;99.90
27200;DHT22;14714;48.106;11.546;2022-07-29T02:37:36;19.50;99.90
27200;DHT22;14714;48.106;11.546;2022-07-29T02:40:04;19.40;99.90
27200;DHT22;14714;48.106;11.546;2022-07-29T02:42:33;19.40;99.90
27200;DHT22;14714;48.106;11.546;2022-07-29T02:45:00;19.40;99.90
27200;DHT22;14714;48.106;11.546;2022-07-29T02:47:36;19.40;99.90
27200;DHT22;14714;48.106;11.546;2022-07-29T02:50:31;19.40;99.90
27200;DHT22;14714;48.106;11.546;2022-07-29T02:53:09;19.30;99.90
27200;DHT22;14714;48.106;11.546;2022-07-29T02:55:43;19.30;99.90
27200;DHT22;14714;48.106;11.546;2022-07-29T02:58:25;19.30;99.90
27200;DHT22;14714;48.106;11.546;2022-07-29T03:01:11;19.20;99.90
27200;DHT22;14714;48.106;11.546;2022-07-29T03:03:45;19.20;99.90
27200;DHT22;14714;48.106;11.546;2022-07-29T03:06:15;19.00;99.90
27200;DHT22;14714;48.106;11.546;2022-07-29T03:09:02;19.00;99.90
27200;DHT22;14714;48.106;11.546;2022-07-29T03:11:35;18.90;99.90
27200;DHT22;14714;48.106;11.546;2022-07-29T03:14:15;18.80;99.90
27200;DHT22;14714;48.106;11.546;2022-07-29T03:16:43;18.70;99.90
27200;DHT22;14714;48.106;11.546;2022-07-29T03:19:10;18.60;99.90
27200;DHT22;14714;48.106;11.546;2022-07-29T03:21:37;18.40;99.90
27200;DHT22;14714;48.106;11.546;2022-07-29T03:24:04;18.30;99.90
27200;DHT22;14714;48.106;11.546;2022-07-29T03:26:36;18.20;99.90
27200;DHT22;14714;48.106;11.546;2022-07-29T03:29:03;18.00;99.90
27200;DHT22;14714;48.106;11.546;2022-07-29T03:31:30;18.00;99.90
27200;DHT22;14714;48.106;11.546;2022-07-29T03:33:59;17.90;99.90
27200;DHT22;14714;48.106;11.546;2022-07-29T03:36:26;17.80;99.90
27200;DHT22;14714;48.106;11.546;2022-07-29T03:38:53;17.70;99.90
27200;DHT22;14714;48.106;11.546;2022-07-29T03:41:21;17.60;99.90
27200;DHT22;14714;48.106;11.546;2022-07-29T03:43:49;17.60;99.90
27200;DHT22;14714;48.106;11.546;2022-07-29T03:46:20;17.50;99.90
27200;DHT22;14714;48.106;11.546;2022-07-29T03:48:50;17.40;99.90
27200;DHT22;14714;48.106;11.546;2022-07-29T03:51:19;17.40;99.90
27200;DHT22;14714;48.106;11.546;2022-07-29T03:54:00;17.30;99.90
27200;DHT22;14714;48.106;11.546;2022-07-29T03:56:45;17.20;99.90
27200;DHT22;14714;48.106;11.546;2022-07-29T03:59:15;17.20;99.90
27200;DHT22;14714;48.106;11.546;2022-07-29T04:01:43;17.10;99.90
27200;DHT22;14714;48.106;11.546;2022-07-29T04:04:10;17.00;99.90
27200;DHT22;14714;48.106;11.546;2022-07-29T04:06:42;17.00;99.90
27200;DHT22;14714;48.106;11.546;2022-07-29T04:09:09;16.90;99.90
27200;DHT22;14714;48.106;11.546;2022-07-29T04:11:38;16.90;99.90
27200;DHT22;14714;48.106;11.546;2022-07-29T04:14:25;16.90;99.90
27200;DHT22;14714;48.106;11.546;2022-07-29T04:16:52;16.80;99.90
27200;DHT22;14714;48.106;11.546;2022-07-29T04:19:19;16.80;99.90
27200;DHT22;14714;48.106;11.546;2022-07-29T04:21:46;16.90;99.90
27200;DHT22;14714;48.106;11.546;2022-07-29T04:24:13;16.90;99.90
27200;DHT22;14714;48.106;11.546;2022-07-29T04:26:40;16.90;99.90
27200;DHT22;14714;48.106;11.546;2022-07-29T04:29:07;17.00;99.90
27200;DHT22;14714;48.106;11.546;2022-07-29T04:31:34;17.30;99.90
27200;DHT22;14714;48.106;11.546;2022-07-29T04:34:01;17.90;99.90
27200;DHT22;14714;48.106;11.546;2022-07-29T04:36:28;18.70;99.90
27200;DHT22;14714;48.106;11.546;2022-07-29T04:38:55;19.60;99.90
27200;DHT22;14714;48.106;11.546;2022-07-29T04:41:22;20.60;99.90
27200;DHT22;14714;48.106;11.546;2022-07-29T04:43:58;21.60;99.90
27200;DHT22;14714;48.106;11.546;2022-07-29T04:46:27;22.70;99.90
27200;DHT22;14714;48.106;11.546;2022-07-29T04:48:54;23.80;99.90
27200;DHT22;14714;48.106;11.546;2022-07-29T04:51:21;24.70;99.30
27200;DHT22;14714;48.106;11.546;2022-07-29T04:53:48;25.50;95.10
27200;DHT22;14714;48.106;11.546;2022-07-29T04:56:15;26.30;91.80
27200;DHT22;14714;48.106;11.546;2022-07-29T04:58:42;27.00;87.20
27200;DHT22;14714;48.106;11.546;2022-07-29T05:01:08;27.80;80.90
27200;DHT22;14714;48.106;11.546;2022-07-29T05:03:35;28.50;75.50
27200;DHT22;14714;48.106;11.546;2022-07-29T05:06:02;29.20;70.20
27200;DHT22;14714;48.106;11.546;2022-07-29T05:08:29;30.00;66.30
27200;DHT22;14714;48.106;11.546;2022-07-29T05:10:56;30.60;61.00
27200;DHT22;14714;48.106;11.546;2022-07-29T05:13:23;30.50;58.20
27200;DHT22;14714;48.106;11.546;2022-07-29T05:15:50;29.60;60.10
27200;DHT22;14714;48.106;11.546;2022-07-29T05:18:16;28.50;61.90
27200;DHT22;14714;48.106;11.546;2022-07-29T05:20:43;27.50;66.60
27200;DHT22;14714;48.106;11.546;2022-07-29T05:23:11;26.60;68.40
27200;DHT22;14714;48.106;11.546;2022-07-29T05:25:39;25.80;73.30
27200;DHT22;14714;48.106;11.546;2022-07-29T05:28:11;25.10;77.90
27200;DHT22;14714;48.106;11.546;2022-07-29T05:30:38;24.50;81.00
27200;DHT22;14714;48.106;11.546;2022-07-29T05:33:05;24.00;85.00
27200;DHT22;14714;48.106;11.546;2022-07-29T05:35:32;24.00;90.10
27200;DHT22;14714;48.106;11.546;2022-07-29T05:37:58;25.00;85.50
27200;DHT22;14714;48.106;11.546;2022-07-29T05:40:25;26.50;79.80
27200;DHT22;14714;48.106;11.546;2022-07-29T05:42:52;28.20;72.70
27200;DHT22;14714;48.106;11.546;2022-07-29T05:45:19;29.70;64.00
27200;DHT22;14714;48.106;11.546;2022-07-29T05:47:46;30.70;59.20
27200;DHT22;14714;48.106;11.546;2022-07-29T05:50:13;31.40;56.20
27200;DHT22;14714;48.106;11.546;2022-07-29T05:52:40;32.20;54.50
27200;DHT22;14714;48.106;11.546;2022-07-29T05:55:07;33.00;51.80
27200;DHT22;14714;48.106;11.546;2022-07-29T05:57:34;33.70;49.80
27200;DHT22;14714;48.106;11.546;2022-07-29T06:00:01;34.60;48.00
27200;DHT22;14714;48.106;11.546;2022-07-29T06:02:28;35.60;45.90
27200;DHT22;14714;48.106;11.546;2022-07-29T06:04:55;36.40;43.40
27200;DHT22;14714;48.106;11.546;2022-07-29T06:07:22;37.20;40.90
27200;DHT22;14714;48.106;11.546;2022-07-29T06:09:48;37.90;38.90
27200;DHT22;14714;48.106;11.546;2022-07-29T06:12:15;38.60;37.20
27200;DHT22;14714;48.106;11.546;2022-07-29T06:14:42;39.00;35.90
27200;DHT22;14714;48.106;11.546;2022-07-29T06:17:09;39.30;35.10
27200;DHT22;14714;48.106;11.546;2022-07-29T06:19:38;39.60;34.50
27200;DHT22;14714;48.106;11.546;2022-07-29T06:22:04;40.00;33.70
27200;DHT22;14714;48.106;11.546;2022-07-29T06:24:31;40.40;33.30
27200;DHT22;14714;48.106;11.546;2022-07-29T06:26:58;40.60;32.40
27200;DHT22;14714;48.106;11.546;2022-07-29T06:29:25;40.90;31.80
27200;DHT22;14714;48.106;11.546;2022-07-29T06:31:52;41.10;31.40
27200;DHT22;14714;48.106;11.546;2022-07-29T06:34:18;41.50;30.50
27200;DHT22;14714;48.106;11.546;2022-07-29T06:36:46;41.80;30.30
27200;DHT22;14714;48.106;11.546;2022-07-29T06:39:14;42.10;29.80
27200;DHT22;14714;48.106;11.546;2022-07-29T06:41:42;42.20;29.90
27200;DHT22;14714;48.106;11.546;2022-07-29T06:44:12;42.60;29.50
27200;DHT22;14714;48.106;11.546;2022-07-29T06:46:40;43.00;28.80
27200;DHT22;14714;48.106;11.546;2022-07-29T06:49:08;43.30;27.90
27200;DHT22;14714;48.106;11.546;2022-07-29T06:51:35;43.10;28.40
27200;DHT22;14714;48.106;11.546;2022-07-29T06:54:02;43.40;28.40
27200;DHT22;14714;48.106;11.546;2022-07-29T06:56:33;43.70;28.30
27200;DHT22;14714;48.106;11.546;2022-07-29T06:59:06;44.20;28.20
27200;DHT22;14714;48.106;11.546;2022-07-29T07:01:33;44.60;27.40
27200;DHT22;14714;48.106;11.546;2022-07-29T07:04:00;44.90;26.80
27200;DHT22;14714;48.106;11.546;2022-07-29T07:06:27;45.20;27.10
27200;DHT22;14714;48.106;11.546;2022-07-29T07:08:54;45.50;26.30
27200;DHT22;14714;48.106;11.546;2022-07-29T07:11:21;45.70;26.10
27200;DHT22;14714;48.106;11.546;2022-07-29T07:13:48;45.90;25.40
27200;DHT22;14714;48.106;11.546;2022-07-29T07:16:15;46.00;25.80
27200;DHT22;14714;48.106;11.546;2022-07-29T07:18:42;46.10;24.90
27200;DHT22;14714;48.106;11.546;2022-07-29T07:21:11;46.20;25.40
27200;DHT22;14714;48.106;11.546;2022-07-29T07:23:45;46.30;25.20
27200;DHT22;14714;48.106;11.546;2022-07-29T07:26:12;46.40;24.80
27200;DHT22;14714;48.106;11.546;2022-07-29T07:28:38;46.60;24.90
27200;DHT22;14714;48.106;11.546;2022-07-29T07:31:05;46.60;24.40
27200;DHT22;14714;48.106;11.546;2022-07-29T07:33:32;46.40;24.10
27200;DHT22;14714;48.106;11.546;2022-07-29T07:35:59;46.30;24.30
27200;DHT22;14714;48.106;11.546;2022-07-29T07:38:26;46.20;24.40
27200;DHT22;14714;48.106;11.546;2022-07-29T07:40:52;46.10;23.70
27200;DHT22;14714;48.106;11.546;2022-07-29T07:43:19;46.10;24.00
27200;DHT22;14714;48.106;11.546;2022-07-29T07:45:46;46.20;23.80
27200;DHT22;14714;48.106;11.546;2022-07-29T07:48:13;46.50;23.60
27200;DHT22;14714;48.106;11.546;2022-07-29T07:50:39;46.50;23.10
27200;DHT22;14714;48.106;11.546;2022-07-29T07:53:06;46.20;23.30
27200;DHT22;14714;48.106;11.546;2022-07-29T07:55:33;46.00;23.30
27200;DHT22;14714;48.106;11.546;2022-07-29T07:58:20;45.80;23.50
27200;DHT22;14714;48.106;11.546;2022-07-29T08:00:47;45.40;24.00
27200;DHT22;14714;48.106;11.546;2022-07-29T08:03:14;45.30;24.20
27200;DHT22;14714;48.106;11.546;2022-07-29T08:05:43;45.40;24.30
27200;DHT22;14714;48.106;11.546;2022-07-29T08:08:10;45.40;24.20
27200;DHT22;14714;48.106;11.546;2022-07-29T08:10:36;45.30;24.60
27200;DHT22;14714;48.106;11.546;2022-07-29T08:13:20;45.40;24.40
27200;DHT22;14714;48.106;11.546;2022-07-29T08:15:48;45.50;25.40
27200;DHT22;14714;48.106;11.546;2022-07-29T08:18:24;45.50;24.70
27200;DHT22;14714;48.106;11.546;2022-07-29T08:20:51;45.20;24.80
27200;DHT22;14714;48.106;11.546;2022-07-29T08:23:18;44.90;24.70
27200;DHT22;14714;48.106;11.546;2022-07-29T08:25:47;44.90;24.80
27200;DHT22;14714;48.106;11.546;2022-07-29T08:28:16;44.70;24.80
27200;DHT22;14714;48.106;11.546;2022-07-29T08:30:43;44.60;26.20
27200;DHT22;14714;48.106;11.546;2022-07-29T08:33:10;44.70;25.30
27200;DHT22;14714;48.106;11.546;2022-07-29T08:35:39;44.80;25.10
27200;DHT22;14714;48.106;11.546;2022-07-29T08:38:05;44.80;24.70
27200;DHT22;14714;48.106;11.546;2022-07-29T08:40:32;44.80;24.70
27200;DHT22;14714;48.106;11.546;2022-07-29T08:43:07;44.90;25.20
27200;DHT22;14714;48.106;11.546;2022-07-29T08:45:44;44.60;25.30
27200;DHT22;14714;48.106;11.546;2022-07-29T08:48:21;43.20;26.40
27200;DHT22;14714;48.106;11.546;2022-07-29T08:50:52;41.90;27.80
27200;DHT22;14714;48.106;11.546;2022-07-29T08:53:19;40.80;29.50
27200;DHT22;14714;48.106;11.546;2022-07-29T08:55:49;39.80;29.90
27200;DHT22;14714;48.106;11.546;2022-07-29T08:58:17;38.80;31.60
27200;DHT22;14714;48.106;11.546;2022-07-29T09:00:51;37.80;32.60
27200;DHT22;14714;48.106;11.546;2022-07-29T09:03:23;37.00;34.30
27200;DHT22;14714;48.106;11.546;2022-07-29T09:05:51;36.50;35.60
27200;DHT22;14714;48.106;11.546;2022-07-29T09:08:18;36.50;36.40
27200;DHT22;14714;48.106;11.546;2022-07-29T09:10:46;36.90;35.70
27200;DHT22;14714;48.106;11.546;2022-07-29T09:13:13;37.40;35.20
27200;DHT22;14714;48.106;11.546;2022-07-29T09:15:40;37.80;35.00
27200;DHT22;14714;48.106;11.546;2022-07-29T09:18:07;38.10;34.00
27200;DHT22;14714;48.106;11.546;2022-07-29T09:20:52;38.70;34.00
27200;DHT22;14714;48.106;11.546;2022-07-29T09:23:37;39.60;32.90
27200;DHT22;14714;48.106;11.546;2022-07-29T09:26:06;40.80;31.40
27200;DHT22;14714;48.106;11.546;2022-07-29T09:28:32;41.80;29.50
27200;DHT22;14714;48.106;11.546;2022-07-29T09:30:59;42.30;28.10
27200;DHT22;14714;48.106;11.546;2022-07-29T09:33:33;41.90;28.20
27200;DHT22;14714;48.106;11.546;2022-07-29T09:36:08;41.70;29.10
27200;DHT22;14714;48.106;11.546;2022-07-29T09:38:35;41.20;29.20
27200;DHT22;14714;48.106;11.546;2022-07-29T09:41:04;40.80;29.70
27200;DHT22;14714;48.106;11.546;2022-07-29T09:43:33;40.40;29.90
27200;DHT22;14714;48.106;11.546;2022-07-29T09:46:12;39.50;31.70
27200;DHT22;14714;48.106;11.546;2022-07-29T09:48:40;38.30;32.90
27200;DHT22;14714;48.106;11.546;2022-07-29T09:51:20;37.00;33.90
27200;DHT22;14714;48.106;11.546;2022-07-29T09:53:55;35.70;37.10
27200;DHT22;14714;48.106;11.546;2022-07-29T09:56:41;34.50;40.10
27200;DHT22;14714;48.106;11.546;2022-07-29T09:59:09;33.60;43.70
27200;DHT22;14714;48.106;11.546;2022-07-29T10:01:37;33.20;43.00
27200;DHT22;14714;48.106;11.546;2022-07-29T10:04:04;32.90;43.40
27200;DHT22;14714;48.106;11.546;2022-07-29T10:06:31;32.60;42.70
27200;DHT22;14714;48.106;11.546;2022-07-29T10:09:08;32.20;43.00
27200;DHT22;14714;48.106;11.546;2022-07-29T10:11:35;31.70;44.20
27200;DHT22;14714;48.106;11.546;2022-07-29T10:14:15;31.20;45.70
27200;DHT22;14714;48.106;11.546;2022-07-29T10:16:42;30.80;46.80
27200;DHT22;14714;48.106;11.546;2022-07-29T10:19:09;30.30;48.00
27200;DHT22;14714;48.106;11.546;2022-07-29T10:21:36;30.00;48.30
27200;DHT22;14714;48.106;11.546;2022-07-29T10:24:06;29.80;49.90
27200;DHT22;14714;48.106;11.546;2022-07-29T10:26:41;29.80;50.70
27200;DHT22;14714;48.106;11.546;2022-07-29T10:29:08;29.70;51.20
27200;DHT22;14714;48.106;11.546;2022-07-29T10:31:48;29.70;50.10
27200;DHT22;14714;48.106;11.546;2022-07-29T10:34:27;29.60;51.20
27200;DHT22;14714;48.106;11.546;2022-07-29T10:37:11;29.60;52.20
27200;DHT22;14714;48.106;11.546;2022-07-29T10:40:05;29.50;52.30
27200;DHT22;14714;48.106;11.546;2022-07-29T10:42:59;29.30;52.70
27200;DHT22;14714;48.106;11.546;2022-07-29T10:45:30;29.30;52.60
27200;DHT22;14714;48.106;11.546;2022-07-29T10:48:04;29.40;52.70
27200;DHT22;14714;48.106;11.546;2022-07-29T10:50:55;29.60;52.10
27200;DHT22;14714;48.106;11.546;2022-07-29T10:53:23;30.30;52.20
27200;DHT22;14714;48.106;11.546;2022-07-29T10:55:52;31.20;50.30
27200;DHT22;14714;48.106;11.546;2022-07-29T10:58:20;31.90;47.10
27200;DHT22;14714;48.106;11.546;2022-07-29T11:00:49;32.60;46.40
27200;DHT22;14714;48.106;11.546;2022-07-29T11:03:42;33.30;45.00
27200;DHT22;14714;48.106;11.546;2022-07-29T11:06:15;33.90;43.80
27200;DHT22;14714;48.106;11.546;2022-07-29T11:08:43;34.40;42.70
27200;DHT22;14714;48.106;11.546;2022-07-29T11:11:31;34.60;39.60
27200;DHT22;14714;48.106;11.546;2022-07-29T11:14:00;34.60;41.60
27200;DHT22;14714;48.106;11.546;2022-07-29T11:17:03;34.70;41.00
27200;DHT22;14714;48.106;11.546;2022-07-29T11:19:32;34.60;41.40
27200;DHT22;14714;48.106;11.546;2022-07-29T11:22:00;34.50;41.10
27200;DHT22;14714;48.106;11.546;2022-07-29T11:24:31;34.40;40.40
27200;DHT22;14714;48.106;11.546;2022-07-29T11:29:38;34.10;41.00
27200;DHT22;14714;48.106;11.546;2022-07-29T11:32:13;33.80;40.70
27200;DHT22;14714;48.106;11.546;2022-07-29T11:34:48;33.60;40.50
27200;DHT22;14714;48.106;11.546;2022-07-29T11:37:17;33.10;43.50
27200;DHT22;14714;48.106;11.546;2022-07-29T11:45:03;32.30;44.20
27200;DHT22;14714;48.106;11.546;2022-07-29T11:47:55;32.00;45.00
27200;DHT22;14714;48.106;11.546;2022-07-29T11:50:44;31.90;45.70
27200;DHT22;14714;48.106;11.546;2022-07-29T11:53:14;31.80;44.80
27200;DHT22;14714;48.106;11.546;2022-07-29T11:55:42;31.70;44.90
27200;DHT22;14714;48.106;11.546;2022-07-29T11:58:21;31.60;45.90
27200;DHT22;14714;48.106;11.546;2022-07-29T12:00:52;31.60;47.50
27200;DHT22;14714;48.106;11.546;2022-07-29T12:03:26;31.70;45.20
27200;DHT22;14714;48.106;11.546;2022-07-29T12:06:01;31.70;45.30
27200;DHT22;14714;48.106;11.546;2022-07-29T12:08:29;31.80;44.20
27200;DHT22;14714;48.106;11.546;2022-07-29T12:10:57;32.00;45.80
27200;DHT22;14714;48.106;11.546;2022-07-29T12:13:23;32.00;45.60
27200;DHT22;14714;48.106;11.546;2022-07-29T12:16:03;32.00;46.30
27200;DHT22;14714;48.106;11.546;2022-07-29T12:18:31;31.90;44.80
27200;DHT22;14714;48.106;11.546;2022-07-29T12:20:59;31.80;44.60
27200;DHT22;14714;48.106;11.546;2022-07-29T12:23:32;31.80;45.20
27200;DHT22;14714;48.106;11.546;2022-07-29T12:26:04;31.80;43.80
27200;DHT22;14714;48.106;11.546;2022-07-29T12:28:39;31.80;45.70
27200;DHT22;14714;48.106;11.546;2022-07-29T12:31:13;31.70;45.00
27200;DHT22;14714;48.106;11.546;2022-07-29T12:34:00;31.60;45.30
27200;DHT22;14714;48.106;11.546;2022-07-29T12:36:28;31.60;44.90
27200;DHT22;14714;48.106;11.546;2022-07-29T12:38:54;31.50;46.40
27200;DHT22;14714;48.106;11.546;2022-07-29T12:41:21;31.60;45.90
27200;DHT22;14714;48.106;11.546;2022-07-29T12:43:55;31.70;45.50
27200;DHT22;14714;48.106;11.546;2022-07-29T12:46:22;31.80;46.40
27200;DHT22;14714;48.106;11.546;2022-07-29T12:48:53;31.80;46.90
27200;DHT22;14714;48.106;11.546;2022-07-29T12:54:11;31.80;45.90
27200;DHT22;14714;48.106;11.546;2022-07-29T12:56:38;31.70;46.30
27200;DHT22;14714;48.106;11.546;2022-07-29T12:59:20;31.50;46.50
27200;DHT22;14714;48.106;11.546;2022-07-29T13:01:49;31.40;46.10
27200;DHT22;14714;48.106;11.546;2022-07-29T13:04:30;31.10;47.10
27200;DHT22;14714;48.106;11.546;2022-07-29T13:06:59;30.80;45.30
27200;DHT22;14714;48.106;11.546;2022-07-29T13:09:40;30.40;46.20
27200;DHT22;14714;48.106;11.546;2022-07-29T13:12:08;30.10;47.00
27200;DHT22;14714;48.106;11.546;2022-07-29T13:14:44;29.90;48.80
27200;DHT22;14714;48.106;11.546;2022-07-29T13:17:19;29.70;49.20
27200;DHT22;14714;48.106;11.546;2022-07-29T13:20:09;29.40;50.30
27200;DHT22;14714;48.106;11.546;2022-07-29T13:22:40;29.30;53.20
27200;DHT22;14714;48.106;11.546;2022-07-29T13:25:09;29.10;54.50
27200;DHT22;14714;48.106;11.546;2022-07-29T13:27:38;28.90;53.60
27200;DHT22;14714;48.106;11.546;2022-07-29T13:30:07;28.60;54.80
27200;DHT22;14714;48.106;11.546;2022-07-29T13:32:35;28.30;54.50
27200;DHT22;14714;48.106;11.546;2022-07-29T13:35:05;28.00;55.60
27200;DHT22;14714;48.106;11.546;2022-07-29T13:37:33;27.80;56.00
27200;DHT22;14714;48.106;11.546;2022-07-29T13:40:02;27.70;55.90
27200;DHT22;14714;48.106;11.546;2022-07-29T13:42:30;27.40;56.80
27200;DHT22;14714;48.106;11.546;2022-07-29T13:44:58;27.30;58.70
27200;DHT22;14714;48.106;11.546;2022-07-29T13:47:25;27.20;57.90
27200;DHT22;14714;48.106;11.546;2022-07-29T13:49:59;27.10;58.50
27200;DHT22;14714;48.106;11.546;2022-07-29T13:52:26;27.00;57.60
27200;DHT22;14714;48.106;11.546;2022-07-29T13:54:53;27.00;58.60
27200;DHT22;14714;48.106;11.546;2022-07-29T13:57:20;27.00;58.10
27200;DHT22;14714;48.106;11.546;2022-07-29T13:59:46;27.10;58.30
27200;DHT22;14714;48.106;11.546;2022-07-29T14:02:19;27.30;58.30
27200;DHT22;14714;48.106;11.546;2022-07-29T14:04:51;27.40;56.90
27200;DHT22;14714;48.106;11.546;2022-07-29T14:07:17;27.60;56.40
27200;DHT22;14714;48.106;11.546;2022-07-29T14:09:44;27.80;57.30
27200;DHT22;14714;48.106;11.546;2022-07-29T14:12:11;27.90;57.20
27200;DHT22;14714;48.106;11.546;2022-07-29T14:14:38;28.10;58.10
27200;DHT22;14714;48.106;11.546;2022-07-29T14:17:05;28.20;56.30
27200;DHT22;14714;48.106;11.546;2022-07-29T14:19:35;28.20;56.60
27200;DHT22;14714;48.106;11.546;2022-07-29T14:22:03;28.20;53.70
27200;DHT22;14714;48.106;11.546;2022-07-29T14:24:31;28.20;54.70
27200;DHT22;14714;48.106;11.546;2022-07-29T14:27:01;28.30;53.90
27200;DHT22;14714;48.106;11.546;2022-07-29T14:29:28;28.30;54.40
27200;DHT22;14714;48.106;11.546;2022-07-29T14:32:05;28.30;55.20
27200;DHT22;14714;48.106;11.546;2022-07-29T14:34:34;28.30;54.10
27200;DHT22;14714;48.106;11.546;2022-07-29T14:37:01;28.20;55.50
27200;DHT22;14714;48.106;11.546;2022-07-29T14:39:29;28.10;54.50
27200;DHT22;14714;48.106;11.546;2022-07-29T14:41:57;28.00;54.60
27200;DHT22;14714;48.106;11.546;2022-07-29T14:44:25;27.90;55.50
27200;DHT22;14714;48.106;11.546;2022-07-29T14:46:58;27.80;56.00
27200;DHT22;14714;48.106;11.546;2022-07-29T14:49:26;27.70;56.40
27200;DHT22;14714;48.106;11.546;2022-07-29T14:51:53;27.70;56.40
27200;DHT22;14714;48.106;11.546;2022-07-29T14:54:21;27.70;57.00
27200;DHT22;14714;48.106;11.546;2022-07-29T14:56:47;27.60;57.40
27200;DHT22;14714;48.106;11.546;2022-07-29T14:59:17;27.50;57.20
27200;DHT22;14714;48.106;11.546;2022-07-29T15:01:44;27.40;59.20
27200;DHT22;14714;48.106;11.546;2022-07-29T15:04:10;27.40;58.30
27200;DHT22;14714;48.106;11.546;2022-07-29T15:06:37;27.40;58.70
27200;DHT22;14714;48.106;11.546;2022-07-29T15:09:04;27.40;58.30
27200;DHT22;14714;48.106;11.546;2022-07-29T15:11:31;27.40;57.40
27200;DHT22;14714;48.106;11.546;2022-07-29T15:14:04;27.40;58.50
27200;DHT22;14714;48.106;11.546;2022-07-29T15:16:31;27.40;57.50
27200;DHT22;14714;48.106;11.546;2022-07-29T15:18:58;27.30;55.90
27200;DHT22;14714;48.106;11.546;2022-07-29T15:21:27;27.20;57.60
27200;DHT22;14714;48.106;11.546;2022-07-29T15:23:53;27.20;59.10
27200;DHT22;14714;48.106;11.546;2022-07-29T15:26:21;27.10;58.60
27200;DHT22;14714;48.106;11.546;2022-07-29T15:28:48;27.10;57.50
27200;DHT22;14714;48.106;11.546;2022-07-29T15:31:14;26.90;56.50
27200;DHT22;14714;48.106;11.546;2022-07-29T15:33:41;26.70;57.70
27200;DHT22;14714;48.106;11.546;2022-07-29T15:36:08;26.60;58.20
27200;DHT22;14714;48.106;11.546;2022-07-29T15:38:35;26.60;58.80
27200;DHT22;14714;48.106;11.546;2022-07-29T15:41:07;26.40;58.90
27200;DHT22;14714;48.106;11.546;2022-07-29T15:43:34;26.40;61.10
27200;DHT22;14714;48.106;11.546;2022-07-29T15:46:03;26.40;60.30
27200;DHT22;14714;48.106;11.546;2022-07-29T15:48:49;26.30;60.50
27200;DHT22;14714;48.106;11.546;2022-07-29T15:51:16;26.20;61.80
27200;DHT22;14714;48.106;11.546;2022-07-29T15:53:42;26.20;61.20
27200;DHT22;14714;48.106;11.546;2022-07-29T15:56:19;26.00;62.00
27200;DHT22;14714;48.106;11.546;2022-07-29T15:58:46;25.90;63.50
27200;DHT22;14714;48.106;11.546;2022-07-29T16:01:13;25.70;63.40
27200;DHT22;14714;48.106;11.546;2022-07-29T16:03:40;25.60;64.40
27200;DHT22;14714;48.106;11.546;2022-07-29T16:06:12;25.40;65.10